Time;durP1;ratioP1;P1;durP2;ratioP2;P2;SDS_P1;SDS_P2;PMS_P1;PMS_P2;Temp;Humidity;BMP_temperature;BMP_pressure;BME280_temperature;BME280_humidity;BME280_pressure;Samples;Min_cycle;Max_cycle;Signal;HPM_P1;HPM_P2
2024/01/14 00:01:05;;;;;;;3.37;3.17;;;2.70;25.10;;;;;;5008416;28;20459;-57
2024/01/14 00:03:33;;;;;;;2.93;2.80;;;2.60;24.70;;;;;;5009875;28;20487;-56
2024/01/14 00:06:00;;;;;;;3.03;2.83;;;2.60;24.60;;;;;;5009190;28;20988;-56
2024/01/14 00:08:26;;;;;;;3.90;3.07;;;2.60;23.40;;;;;;5010291;28;20467;-56
2024/01/14 00:10:53;;;;;;;3.00;2.80;;;2.70;21.40;;;;;;5008944;28;20522;-56
2024/01/14 00:13:19;;;;;;;3.50;3.20;;;2.70;22.10;;;;;;5008397;28;20487;-56
2024/01/14 00:15:46;;;;;;;2.87;2.67;;;2.70;22.80;;;;;;5006193;28;20467;-56
2024/01/14 00:18:13;;;;;;;4.07;3.70;;;2.60;22.30;;;;;;5006362;28;20479;-56
2024/01/14 00:20:41;;;;;;;3.33;2.97;;;2.60;22.70;;;;;;5017629;28;20475;-57
2024/01/14 00:23:07;;;;;;;3.33;3.03;;;2.60;21.20;;;;;;5026291;28;20483;-57
2024/01/14 00:25:34;;;;;;;3.07;2.87;;;2.60;22.30;;;;;;5033474;28;20455;-57
2024/01/14 00:28:02;;;;;;;4.40;3.20;;;2.50;22.00;;;;;;5031551;28;20460;-57
2024/01/14 00:30:28;;;;;;;7.50;3.30;;;2.50;20.00;;;;;;5031879;28;20550;-56
2024/01/14 00:32:55;;;;;;;3.43;3.13;;;2.50;95.90;;;;;;5019337;28;20495;-58
2024/01/14 00:35:23;;;;;;;4.60;3.57;;;2.60;99.90;;;;;;5007600;28;20958;-56
2024/01/14 00:37:52;;;;;;;3.40;2.80;;;2.60;99.90;;;;;;4993796;28;20480;-58
2024/01/14 00:40:19;;;;;;;4.77;3.50;;;2.70;99.90;;;;;;5006025;28;20559;-58
2024/01/14 00:42:45;;;;;;;6.67;3.20;;;2.70;99.90;;;;;;5008935;28;20475;-58
2024/01/14 00:45:12;;;;;;;3.83;3.53;;;2.70;99.90;;;;;;5005512;28;20468;-57
2024/01/14 00:47:39;;;;;;;6.40;3.77;;;2.70;99.90;;;;;;5012785;28;20537;-56
2024/01/14 00:50:06;;;;;;;4.23;3.57;;;2.70;99.90;;;;;;5004524;28;20463;-57
2024/01/14 00:52:33;;;;;;;14.87;3.83;;;2.70;99.90;;;;;;5009830;28;20549;-57
2024/01/14 00:55:01;;;;;;;3.67;3.37;;;2.80;99.90;;;;;;5008355;28;20460;-57
2024/01/14 00:57:28;;;;;;;6.30;3.70;;;2.80;99.90;;;;;;5008636;28;20961;-56
2024/01/14 00:59:55;;;;;;;5.20;3.70;;;2.80;88.80;;;;;;5004269;28;20949;-57
2024/01/14 01:02:21;;;;;;;4.33;3.43;;;2.70;85.30;;;;;;5010154;28;20471;-56
2024/01/14 01:04:48;;;;;;;4.27;3.83;;;2.80;77.00;;;;;;4999676;28;20444;-57
2024/01/14 01:07:14;;;;;;;5.40;3.50;;;2.70;20.20;;;;;;5009215;28;20448;-57
2024/01/14 01:09:41;;;;;;;3.13;2.90;;;2.70;20.60;;;;;;5005969;28;20491;-56
2024/01/14 01:12:09;;;;;;;4.53;3.43;;;2.80;71.70;;;;;;5011199;28;20472;-57
2024/01/14 01:14:35;;;;;;;4.73;3.40;;;2.70;20.30;;;;;;5008810;28;20460;-56
2024/01/14 01:17:02;;;;;;;6.53;3.13;;;2.70;20.40;;;;;;5010857;28;20510;-57
2024/01/14 01:19:29;;;;;;;7.90;3.20;;;2.70;20.80;;;;;;5013963;28;20981;-56
2024/01/14 01:21:55;;;;;;;5.97;3.17;;;2.70;21.10;;;;;;5018194;28;20451;-56
2024/01/14 01:24:22;;;;;;;6.80;3.10;;;2.70;28.40;;;;;;5018557;28;20448;-56
2024/01/14 01:26:48;;;;;;;5.87;3.00;;;2.70;26.20;;;;;;5007437;28;20504;-57
2024/01/14 01:29:16;;;;;;;3.20;2.20;;;2.70;29.40;;;;;;5018128;28;20441;-56
2024/01/14 01:31:43;;;;;;;3.40;2.40;;;2.60;28.40;;;;;;5010285;28;20914;-57
2024/01/14 01:34:10;;;;;;;3.10;2.40;;;2.60;28.40;;;;;;5013584;28;20463;-57
2024/01/14 01:36:36;;;;;;;2.40;1.97;;;2.60;27.60;;;;;;5015114;28;20443;-57
2024/01/14 01:39:03;;;;;;;3.33;2.27;;;2.50;28.00;;;;;;5016494;28;20537;-56
2024/01/14 01:41:30;;;;;;;4.23;1.90;;;2.40;27.40;;;;;;5013744;28;20542;-57
2024/01/14 01:43:57;;;;;;;4.03;1.87;;;2.40;26.30;;;;;;5015835;28;21001;-57
2024/01/14 01:46:25;;;;;;;2.00;1.77;;;2.40;22.60;;;;;;5015108;28;20529;-56
2024/01/14 01:48:51;;;;;;;3.20;2.17;;;2.40;21.00;;;;;;5017806;28;20464;-57
2024/01/14 01:51:18;;;;;;;2.40;1.80;;;2.40;73.80;;;;;;5010847;28;20467;-57
2024/01/14 01:53:45;;;;;;;3.20;2.00;;;2.30;76.60;;;;;;5012906;28;20529;-57
2024/01/14 01:56:12;;;;;;;2.27;1.93;;;2.30;90.80;;;;;;5013299;28;20455;-57
2024/01/14 01:58:40;;;;;;;2.80;2.27;;;2.30;99.90;;;;;;5012719;28;20506;-56
2024/01/14 02:01:07;;;;;;;4.10;2.50;;;2.30;99.90;;;;;;5008195;28;20463;-57
2024/01/14 02:03:35;;;;;;;3.40;2.00;;;2.30;99.90;;;;;;5013490;28;20487;-56
2024/01/14 02:06:03;;;;;;;2.90;1.70;;;2.30;99.90;;;;;;5018264;28;20448;-57
2024/01/14 02:08:30;;;;;;;2.30;2.10;;;2.40;99.90;;;;;;5017956;28;20523;-56
2024/01/14 02:10:56;;;;;;;4.33;2.20;;;2.30;99.90;;;;;;5010391;28;20447;-57
2024/01/14 02:13:23;;;;;;;4.37;2.23;;;2.30;99.90;;;;;;5013745;28;20467;-56
2024/01/14 02:15:50;;;;;;;4.30;2.00;;;2.30;99.90;;;;;;5013386;28;20509;-57
2024/01/14 02:18:17;;;;;;;5.50;2.00;;;2.30;88.40;;;;;;5013735;28;20483;-57
2024/01/14 02:20:44;;;;;;;6.80;2.20;;;2.30;75.00;;;;;;5016994;28;20447;-57
2024/01/14 02:23:14;;;;;;;2.70;2.17;;;2.30;81.50;;;;;;5009848;28;20468;-56
2024/01/14 02:25:42;;;;;;;4.80;2.03;;;2.20;81.50;;;;;;5016073;28;20498;-57
2024/01/14 02:28:09;;;;;;;6.37;2.10;;;2.20;20.20;;;;;;5013913;28;20588;-56
2024/01/14 02:30:36;;;;;;;4.43;2.07;;;2.20;21.70;;;;;;5014657;28;20448;-57
2024/01/14 02:33:04;;;;;;;3.93;2.20;;;2.20;22.50;;;;;;5011271;28;20528;-57
2024/01/14 02:35:30;;;;;;;4.50;1.97;;;2.20;22.70;;;;;;5004698;28;20455;-56
2024/01/14 02:37:57;;;;;;;9.33;3.50;;;2.20;23.70;;;;;;5013714;28;20514;-53
2024/01/14 02:40:23;;;;;;;6.03;2.30;;;2.20;25.30;;;;;;5011274;28;20483;-53
2024/01/14 02:42:51;;;;;;;7.67;2.50;;;2.20;24.80;;;;;;5013625;28;20476;-53
2024/01/14 02:45:19;;;;;;;4.40;2.50;;;2.20;28.80;;;;;;5006310;28;20443;-53
2024/01/14 02:47:45;;;;;;;5.43;2.10;;;2.20;28.50;;;;;;5006357;28;20456;-53
2024/01/14 02:50:11;;;;;;;4.70;2.03;;;2.20;29.90;;;;;;5009367;28;20454;-53
2024/01/14 02:52:38;;;;;;;3.13;2.03;;;2.20;28.70;;;;;;5013035;28;20920;-53
2024/01/14 02:55:06;;;;;;;6.80;2.40;;;2.30;29.20;;;;;;5013763;28;20205;-53
2024/01/14 02:57:33;;;;;;;11.17;2.40;;;2.20;30.50;;;;;;5008962;28;20491;-53
2024/01/14 03:00:01;;;;;;;6.00;2.07;;;2.20;35.60;;;;;;5012872;28;20484;-53
2024/01/14 03:02:27;;;;;;;3.63;1.63;;;2.20;36.80;;;;;;5005933;28;20549;-54
2024/01/14 03:04:54;;;;;;;9.50;2.37;;;2.20;37.60;;;;;;5013648;28;20439;-53
2024/01/14 03:07:20;;;;;;;9.73;3.20;;;2.20;37.50;;;;;;5008804;28;20456;-53
2024/01/14 03:09:47;;;;;;;6.87;2.10;;;2.20;39.40;;;;;;5013911;28;20443;-53
2024/01/14 03:12:13;;;;;;;6.57;2.10;;;2.20;37.10;;;;;;5007556;28;20468;-54
2024/01/14 03:14:40;;;;;;;6.77;2.37;;;2.20;42.00;;;;;;5014009;28;20476;-53
2024/01/14 03:17:08;;;;;;;5.60;2.53;;;2.20;41.70;;;;;;5007813;28;20464;-53
2024/01/14 03:19:34;;;;;;;11.60;2.60;;;2.30;43.30;;;;;;5012526;28;21005;-53
2024/01/14 03:22:01;;;;;;;12.67;3.10;;;2.20;45.30;;;;;;5009728;28;20503;-53
2024/01/14 03:24:27;;;;;;;9.37;2.30;;;2.20;45.30;;;;;;5005467;28;20440;-53
2024/01/14 03:26:54;;;;;;;12.10;2.30;;;2.20;46.60;;;;;;5012136;28;20934;-53
2024/01/14 03:29:21;;;;;;;6.13;2.37;;;2.20;48.20;;;;;;5006152;28;20505;-53
2024/01/14 03:31:47;;;;;;;8.50;2.77;;;2.10;45.40;;;;;;5004708;28;20498;-53
2024/01/14 03:34:15;;;;;;;15.00;2.80;;;2.10;47.00;;;;;;5013117;28;20440;-53
2024/01/14 03:36:42;;;;;;;3.40;2.00;;;2.10;46.50;;;;;;5012104;28;20447;-53
2024/01/14 03:39:08;;;;;;;7.50;2.40;;;2.10;45.30;;;;;;5011047;28;20542;-53
2024/01/14 03:41:35;;;;;;;6.13;1.93;;;2.10;51.00;;;;;;5012128;28;20459;-52
2024/01/14 03:44:02;;;;;;;11.57;2.60;;;2.10;51.80;;;;;;5012404;28;20467;-54
2024/01/14 03:46:28;;;;;;;14.57;2.70;;;2.10;51.20;;;;;;5013146;28;20439;-53
2024/01/14 03:48:55;;;;;;;7.60;2.37;;;2.10;50.20;;;;;;5006226;28;20518;-52
2024/01/14 03:51:23;;;;;;;5.27;2.27;;;2.10;55.10;;;;;;5007398;28;20941;-53
2024/01/14 03:53:49;;;;;;;12.47;2.90;;;2.10;52.50;;;;;;5007039;28;20466;-54
2024/01/14 03:56:16;;;;;;;10.30;2.67;;;2.00;55.60;;;;;;5012135;28;20491;-53
2024/01/14 03:58:43;;;;;;;6.60;2.30;;;2.00;55.80;;;;;;5009381;28;20447;-53
2024/01/14 04:01:16;;;;;;;12.10;2.87;;;2.00;58.90;;;;;;5004932;28;20514;-53
2024/01/14 04:03:42;;;;;;;10.73;2.87;;;2.00;59.20;;;;;;5012151;28;20980;-53
2024/01/14 04:06:09;;;;;;;10.07;2.73;;;2.00;67.00;;;;;;5004886;28;20494;-53
2024/01/14 04:08:37;;;;;;;10.70;2.70;;;2.00;70.60;;;;;;5012059;28;20887;-53
2024/01/14 04:11:04;;;;;;;10.83;2.40;;;2.00;70.00;;;;;;5012424;28;20479;-53
2024/01/14 04:13:31;;;;;;;8.40;3.00;;;2.00;72.30;;;;;;5012455;28;20463;-54
2024/01/14 04:15:57;;;;;;;11.20;2.90;;;2.00;69.50;;;;;;5004928;28;20550;-52
2024/01/14 04:18:24;;;;;;;13.90;2.30;;;2.00;68.00;;;;;;5011210;28;20517;-53
2024/01/14 04:20:50;;;;;;;8.10;2.60;;;1.90;63.80;;;;;;5005861;28;20508;-53
2024/01/14 04:23:17;;;;;;;10.57;2.80;;;1.90;64.50;;;;;;5009868;28;20468;-54
2024/01/14 04:25:45;;;;;;;10.43;3.27;;;2.00;64.40;;;;;;5007954;28;20472;-53
2024/01/14 04:28:11;;;;;;;8.20;2.47;;;2.00;64.00;;;;;;5012241;28;20546;-53
2024/01/14 04:30:38;;;;;;;10.53;3.57;;;2.00;63.90;;;;;;5012203;28;20520;-53
2024/01/14 04:33:05;;;;;;;8.77;3.30;;;2.00;61.50;;;;;;5007236;28;20911;-53
2024/01/14 04:35:32;;;;;;;7.83;2.93;;;2.00;68.60;;;;;;5004646;28;20475;-53
2024/01/14 04:37:58;;;;;;;8.07;2.57;;;2.00;70.00;;;;;;5012252;28;20448;-53
2024/01/14 04:40:25;;;;;;;11.83;4.00;;;2.00;70.20;;;;;;5004148;28;20483;-53
2024/01/14 04:42:53;;;;;;;12.40;2.70;;;2.10;70.40;;;;;;5008501;28;20468;-53
2024/01/14 04:45:20;;;;;;;8.37;2.77;;;2.00;71.20;;;;;;5011478;28;20444;-53
2024/01/14 04:47:47;;;;;;;11.37;2.57;;;2.00;71.00;;;;;;5008178;28;20793;-53
2024/01/14 04:50:14;;;;;;;6.13;2.20;;;2.00;74.60;;;;;;5005528;28;20498;-53
2024/01/14 04:52:40;;;;;;;6.77;2.60;;;1.90;71.00;;;;;;5004657;28;20631;-53
2024/01/14 04:55:07;;;;;;;12.77;2.60;;;2.00;75.60;;;;;;5011721;28;20483;-54
2024/01/14 04:57:34;;;;;;;10.43;3.43;;;2.00;74.90;;;;;;5012107;28;20494;-53
2024/01/14 05:00:02;;;;;;;10.20;2.43;;;1.90;72.10;;;;;;5011598;28;20525;-53
2024/01/14 05:02:28;;;;;;;9.20;2.87;;;1.90;73.20;;;;;;5009802;28;20483;-53
2024/01/14 05:04:55;;;;;;;9.87;2.77;;;1.90;73.50;;;;;;5007631;28;20459;-54
2024/01/14 05:07:21;;;;;;;8.67;2.80;;;1.90;74.10;;;;;;5033099;28;20450;-53
2024/01/14 05:09:48;;;;;;;7.87;3.03;;;1.90;69.70;;;;;;5036151;28;20447;-53
2024/01/14 05:12:15;;;;;;;15.27;3.10;;;1.90;70.70;;;;;;5035616;28;20456;-55
2024/01/14 05:14:41;;;;;;;8.63;2.83;;;1.90;73.80;;;;;;5035140;28;20440;-53
2024/01/14 05:17:09;;;;;;;10.37;3.50;;;1.90;73.90;;;;;;5022333;28;20961;-53
2024/01/14 05:19:39;;;;;;;8.73;2.80;;;1.90;74.10;;;;;;5011211;28;20483;-53
2024/01/14 05:22:05;;;;;;;8.90;2.53;;;2.00;73.90;;;;;;5011872;28;20495;-53
2024/01/14 05:24:32;;;;;;;10.93;3.07;;;2.00;76.40;;;;;;5003789;28;20475;-53
2024/01/14 05:26:58;;;;;;;6.80;2.60;;;2.10;80.40;;;;;;5011054;28;20825;-53
2024/01/14 05:29:25;;;;;;;9.33;2.80;;;2.00;86.40;;;;;;5010761;28;20981;-53
2024/01/14 05:31:51;;;;;;;6.93;3.03;;;2.10;98.10;;;;;;5008782;28;21051;-53
2024/01/14 05:34:19;;;;;;;12.73;3.37;;;2.10;97.50;;;;;;5005975;28;20807;-53
2024/01/14 05:36:46;;;;;;;10.00;2.90;;;2.10;99.90;;;;;;5006003;28;20929;-53
2024/01/14 05:39:12;;;;;;;5.40;2.83;;;2.10;99.90;;;;;;5011101;28;21012;-53
2024/01/14 05:41:39;;;;;;;9.63;2.33;;;2.10;99.90;;;;;;5010882;28;20448;-53
2024/01/14 05:44:05;;;;;;;5.93;2.97;;;2.20;99.90;;;;;;5005047;28;20523;-53
2024/01/14 05:46:32;;;;;;;11.30;2.80;;;2.20;99.90;;;;;;5011602;28;20506;-53
2024/01/14 05:48:58;;;;;;;7.70;2.93;;;2.20;99.90;;;;;;5010819;28;20541;-53
2024/01/14 05:51:26;;;;;;;8.10;2.23;;;2.20;99.90;;;;;;5007254;28;20869;-53
2024/01/14 05:53:53;;;;;;;8.13;2.20;;;2.10;99.90;;;;;;5009680;28;20875;-53
2024/01/14 05:56:26;;;;;;;12.10;2.30;;;2.10;99.90;;;;;;5009176;28;20521;-53
2024/01/14 05:58:52;;;;;;;9.73;2.23;;;2.10;99.90;;;;;;5005078;28;20447;-53
2024/01/14 06:01:19;;;;;;;7.53;2.37;;;2.10;99.90;;;;;;5010895;28;20541;-53
2024/01/14 06:03:46;;;;;;;10.87;2.50;;;2.10;99.90;;;;;;5011135;28;20987;-54
2024/01/14 06:06:12;;;;;;;8.83;2.20;;;2.10;99.90;;;;;;5012288;28;20443;-53
2024/01/14 06:08:41;;;;;;;9.97;3.83;;;2.10;99.90;;;;;;5012281;28;20448;-53
2024/01/14 06:11:08;;;;;;;8.23;2.87;;;2.10;99.90;;;;;;5009990;28;20517;-53
2024/01/14 06:13:34;;;;;;;6.73;2.03;;;2.10;99.90;;;;;;5010612;28;21043;-53
2024/01/14 06:16:02;;;;;;;12.67;2.57;;;2.10;99.90;;;;;;5004555;28;21009;-53
2024/01/14 06:18:29;;;;;;;7.80;2.53;;;2.10;99.90;;;;;;5013525;28;20494;-53
2024/01/14 06:20:55;;;;;;;4.00;2.00;;;2.00;99.20;;;;;;5014389;28;20514;-53
2024/01/14 06:23:22;;;;;;;9.63;2.10;;;2.00;95.10;;;;;;5014399;28;20477;-53
2024/01/14 06:25:50;;;;;;;4.20;2.40;;;2.00;88.50;;;;;;5006543;28;20801;-53
2024/01/14 06:28:16;;;;;;;5.20;2.43;;;1.90;78.80;;;;;;5014026;28;20845;-53
2024/01/14 06:30:43;;;;;;;6.60;2.70;;;1.90;73.60;;;;;;5014468;28;20443;-53
2024/01/14 06:33:10;;;;;;;8.40;2.63;;;1.90;63.70;;;;;;5011061;28;20514;-53
2024/01/14 06:35:37;;;;;;;7.97;2.30;;;1.90;61.20;;;;;;5008319;28;20945;-54
2024/01/14 06:38:03;;;;;;;6.43;2.07;;;1.90;57.60;;;;;;5012910;28;20498;-53
2024/01/14 06:40:30;;;;;;;4.27;2.03;;;1.80;57.40;;;;;;5007231;28;20483;-53
2024/01/14 06:42:58;;;;;;;12.47;2.60;;;1.80;53.30;;;;;;5014287;28;20495;-53
2024/01/14 06:45:24;;;;;;;6.97;2.30;;;1.80;48.30;;;;;;5009961;28;21035;-53
2024/01/14 06:47:51;;;;;;;7.27;2.73;;;1.70;44.30;;;;;;5014297;28;20867;-53
2024/01/14 06:50:18;;;;;;;5.47;2.50;;;1.70;35.80;;;;;;5003292;28;20962;-53
2024/01/14 06:52:45;;;;;;;7.33;2.40;;;1.70;34.60;;;;;;5007154;28;20547;-53
2024/01/14 06:55:13;;;;;;;12.47;2.57;;;1.80;32.50;;;;;;5008390;28;20451;-53
2024/01/14 06:57:40;;;;;;;6.33;1.90;;;1.80;29.10;;;;;;5008883;28;20810;-53
2024/01/14 07:00:09;;;;;;;6.37;1.93;;;1.80;30.60;;;;;;5002653;28;20519;-53
2024/01/14 07:02:36;;;;;;;5.33;1.90;;;1.80;31.50;;;;;;5012206;28;20499;-54
2024/01/14 07:05:03;;;;;;;4.50;2.10;;;1.80;35.00;;;;;;5003851;28;20470;-53
2024/01/14 07:07:30;;;;;;;5.10;1.60;;;1.80;34.90;;;;;;5013701;28;20491;-52
2024/01/14 07:09:57;;;;;;;4.73;1.87;;;1.80;34.40;;;;;;4998718;28;20445;-53
2024/01/14 07:12:23;;;;;;;3.33;2.00;;;1.80;35.50;;;;;;5011488;28;20462;-53
2024/01/14 07:14:50;;;;;;;7.77;2.53;;;1.80;35.90;;;;;;5004287;28;20504;-53
2024/01/14 07:17:18;;;;;;;3.80;2.47;;;1.80;36.70;;;;;;5007449;28;20491;-53
2024/01/14 07:19:45;;;;;;;8.70;2.43;;;1.80;39.40;;;;;;5012596;28;20524;-53
2024/01/14 07:22:12;;;;;;;12.13;3.07;;;1.80;37.90;;;;;;5010277;28;20468;-53
2024/01/14 07:24:38;;;;;;;9.20;2.53;;;1.80;39.30;;;;;;5012127;28;20551;-53
2024/01/14 07:27:05;;;;;;;7.10;2.53;;;1.80;43.80;;;;;;5013006;28;20488;-53
2024/01/14 07:29:32;;;;;;;7.30;2.03;;;1.90;44.70;;;;;;5009004;28;20540;-53
2024/01/14 07:31:59;;;;;;;4.93;2.20;;;1.90;44.90;;;;;;5010643;28;20451;-54
2024/01/14 07:34:27;;;;;;;8.63;2.33;;;1.90;46.70;;;;;;5036980;28;20674;-53
2024/01/14 07:36:53;;;;;;;6.10;2.23;;;1.90;54.30;;;;;;5024617;28;20965;-54
2024/01/14 07:39:20;;;;;;;7.03;2.87;;;1.90;52.70;;;;;;5016341;28;20448;-53
2024/01/14 07:41:46;;;;;;;7.60;2.27;;;1.90;52.90;;;;;;5014193;28;20612;-53
2024/01/14 07:44:13;;;;;;;8.07;2.33;;;1.90;54.00;;;;;;5013204;28;21185;-53
2024/01/14 07:46:40;;;;;;;5.57;2.17;;;2.00;52.40;;;;;;5011467;28;20445;-53
2024/01/14 07:49:06;;;;;;;5.60;2.20;;;2.00;55.90;;;;;;5009834;28;20467;-53
2024/01/14 07:51:34;;;;;;;10.10;2.97;;;2.00;57.50;;;;;;5010201;28;20460;-53
2024/01/14 07:54:00;;;;;;;9.10;2.13;;;2.00;58.50;;;;;;5012282;28;20475;-53
2024/01/14 07:56:27;;;;;;;13.20;2.50;;;2.00;58.10;;;;;;5011218;28;20496;-54
2024/01/14 07:58:54;;;;;;;9.03;3.00;;;2.00;64.00;;;;;;5010670;28;20509;-54
2024/01/14 08:01:20;;;;;;;11.30;2.90;;;2.10;64.40;;;;;;5010052;28;20580;-53
2024/01/14 08:03:48;;;;;;;7.30;2.43;;;2.00;72.30;;;;;;5010134;28;20480;-54
2024/01/14 08:06:20;;;;;;;9.60;2.47;;;2.00;72.90;;;;;;5005791;28;20518;-53
2024/01/14 08:08:48;;;;;;;7.73;2.70;;;2.10;72.20;;;;;;5004987;28;20466;-53
2024/01/14 08:11:14;;;;;;;7.27;2.17;;;2.10;73.10;;;;;;5009208;28;20513;-53
2024/01/14 08:13:41;;;;;;;9.23;2.57;;;2.10;75.10;;;;;;5010432;28;20491;-53
2024/01/14 08:16:07;;;;;;;8.30;2.77;;;2.10;75.20;;;;;;5011738;28;20475;-53
2024/01/14 08:18:34;;;;;;;9.37;1.83;;;2.10;76.80;;;;;;5011118;28;20882;-53
2024/01/14 08:21:01;;;;;;;6.70;2.57;;;2.20;82.20;;;;;;5011305;28;20480;-53
2024/01/14 08:23:29;;;;;;;10.27;4.07;;;2.20;85.70;;;;;;5009224;28;20897;-52
2024/01/14 08:25:57;;;;;;;6.80;2.30;;;2.20;89.70;;;;;;5007234;28;20444;-53
2024/01/14 08:28:25;;;;;;;3.00;2.07;;;2.20;86.80;;;;;;5006288;28;20490;-52
2024/01/14 08:30:51;;;;;;;6.03;2.57;;;2.20;93.50;;;;;;5010914;28;20929;-53
2024/01/14 08:33:18;;;;;;;6.93;2.33;;;2.30;94.80;;;;;;5010898;28;20553;-53
2024/01/14 08:35:44;;;;;;;3.53;2.00;;;2.30;94.70;;;;;;5009157;28;20456;-53
2024/01/14 08:38:11;;;;;;;6.40;2.20;;;2.30;95.50;;;;;;5010586;28;20448;-53
2024/01/14 08:40:38;;;;;;;9.30;2.10;;;2.30;93.50;;;;;;5007940;28;20561;-53
2024/01/14 08:43:06;;;;;;;14.27;2.50;;;2.30;97.70;;;;;;5007990;28;20895;-53
2024/01/14 08:45:32;;;;;;;11.10;2.20;;;2.30;98.00;;;;;;5010759;28;20503;-53
2024/01/14 08:47:59;;;;;;;9.13;2.50;;;2.30;96.30;;;;;;5007962;28;20472;-52
2024/01/14 08:50:25;;;;;;;3.57;2.13;;;2.30;96.80;;;;;;5010430;28;20440;-52
2024/01/14 08:52:52;;;;;;;4.73;2.13;;;2.40;95.20;;;;;;5011336;28;20464;-53
2024/01/14 08:55:18;;;;;;;10.47;2.40;;;2.50;94.10;;;;;;5011596;28;20523;-53
2024/01/14 08:57:45;;;;;;;7.00;2.20;;;2.50;99.90;;;;;;5012062;28;20506;-53
2024/01/14 09:00:13;;;;;;;2.07;1.37;;;2.50;99.90;;;;;;5011475;28;20471;-53
2024/01/14 09:02:40;;;;;;;4.90;2.30;;;2.50;99.90;;;;;;5010723;28;20455;-53
2024/01/14 09:05:07;;;;;;;5.43;2.10;;;2.50;99.90;;;;;;5011749;28;20497;-53
2024/01/14 09:07:34;;;;;;;3.87;1.70;;;2.60;99.90;;;;;;5003316;28;20479;-53
2024/01/14 09:10:01;;;;;;;3.77;1.80;;;2.60;99.90;;;;;;5008760;28;20446;-53
2024/01/14 09:12:27;;;;;;;4.90;2.10;;;2.70;99.90;;;;;;5011112;28;20550;-53
2024/01/14 09:14:54;;;;;;;4.97;2.10;;;2.70;99.90;;;;;;5008422;28;20952;-54
2024/01/14 09:17:22;;;;;;;7.10;2.50;;;2.80;99.90;;;;;;5005180;28;20444;-53
2024/01/14 09:19:48;;;;;;;6.10;1.87;;;2.80;99.90;;;;;;5005670;28;20539;-53
2024/01/14 09:22:15;;;;;;;7.50;2.27;;;2.80;99.90;;;;;;5009788;28;20492;-53
2024/01/14 09:24:45;;;;;;;5.90;2.00;;;2.90;99.90;;;;;;5003335;28;20887;-53
2024/01/14 09:27:12;;;;;;;5.60;2.30;;;2.90;99.90;;;;;;5005624;28;20459;-53
2024/01/14 09:29:39;;;;;;;5.67;2.50;;;2.80;99.90;;;;;;5009693;28;20472;-53
2024/01/14 09:32:06;;;;;;;5.20;1.87;;;2.90;99.90;;;;;;5006710;28;20483;-53
2024/01/14 09:34:34;;;;;;;10.37;2.60;;;2.80;99.90;;;;;;5002651;28;20463;-53
2024/01/14 09:37:00;;;;;;;10.37;2.57;;;2.80;99.90;;;;;;5001314;28;20490;-51
2024/01/14 09:39:27;;;;;;;7.10;2.53;;;2.80;99.90;;;;;;5003855;28;20557;-53
2024/01/14 09:42:04;;;;;;;6.30;2.23;;;2.80;99.90;;;;;;5009855;28;20928;-53
2024/01/14 09:44:30;;;;;;;6.87;1.90;;;2.80;99.90;;;;;;5009099;28;20457;-53
2024/01/14 09:46:58;;;;;;;7.40;2.33;;;2.80;99.90;;;;;;5005400;28;20518;-53
2024/01/14 09:49:25;;;;;;;8.60;2.40;;;2.80;99.90;;;;;;5005718;28;20456;-53
2024/01/14 09:51:55;;;;;;;4.77;2.30;;;2.80;99.90;;;;;;5007269;28;20491;-53
2024/01/14 09:54:22;;;;;;;8.10;2.77;;;2.90;99.90;;;;;;5006420;28;20460;-53
2024/01/14 09:56:51;;;;;;;4.13;2.17;;;2.90;99.90;;;;;;5011877;28;20499;-52
2024/01/14 09:59:19;;;;;;;4.20;1.97;;;3.00;99.90;;;;;;5010755;28;20543;-54
2024/01/14 10:01:46;;;;;;;5.40;1.83;;;2.90;99.90;;;;;;5004570;28;20513;-52
2024/01/14 10:04:16;;;;;;;7.40;2.13;;;2.90;99.90;;;;;;5001848;28;20911;-53
2024/01/14 10:06:43;;;;;;;11.07;3.60;;;2.90;99.90;;;;;;5002790;28;20510;-52
2024/01/14 10:09:11;;;;;;;8.53;2.60;;;2.90;99.90;;;;;;5009650;28;20463;-54
2024/01/14 10:11:38;;;;;;;3.90;1.80;;;3.00;99.90;;;;;;5006514;28;20518;-52
2024/01/14 10:14:04;;;;;;;6.37;2.73;;;3.10;99.90;;;;;;5005551;28;21053;-53
2024/01/14 10:16:31;;;;;;;4.97;1.93;;;3.10;99.90;;;;;;4996863;28;21013;-53
2024/01/14 10:18:58;;;;;;;5.20;2.33;;;3.10;99.90;;;;;;5007877;28;20971;-53
2024/01/14 10:21:25;;;;;;;7.87;3.37;;;3.10;99.90;;;;;;5004772;28;20511;-53
2024/01/14 10:23:52;;;;;;;6.27;2.57;;;3.10;99.90;;;;;;5007607;28;20852;-53
2024/01/14 10:26:22;;;;;;;8.43;2.97;;;3.10;99.90;;;;;;5007735;28;20929;-54
2024/01/14 10:28:49;;;;;;;10.30;3.57;;;3.00;99.90;;;;;;5012166;28;20521;-53
2024/01/14 10:31:16;;;;;;;8.03;3.17;;;3.10;99.90;;;;;;5009408;28;20464;-53
2024/01/14 10:33:45;;;;;;;11.17;2.70;;;3.00;99.90;;;;;;5005914;28;20492;-53
2024/01/14 10:36:11;;;;;;;7.63;3.27;;;3.00;99.90;;;;;;5002824;28;20496;-53
2024/01/14 10:38:38;;;;;;;8.20;3.17;;;3.10;99.90;;;;;;5012257;28;20471;-53
2024/01/14 10:41:05;;;;;;;6.73;2.63;;;3.10;99.90;;;;;;5007560;28;20507;-54
2024/01/14 10:43:34;;;;;;;5.77;2.90;;;3.10;99.90;;;;;;5005730;28;21844;-54
2024/01/14 10:46:02;;;;;;;6.07;2.27;;;3.10;99.90;;;;;;5012500;28;20452;-54
2024/01/14 10:48:29;;;;;;;6.90;2.80;;;3.10;99.90;;;;;;5008018;28;20560;-53
2024/01/14 10:50:59;;;;;;;7.60;3.10;;;3.10;99.90;;;;;;5012281;28;20458;-53
2024/01/14 10:53:34;;;;;;;5.03;2.57;;;3.10;99.90;;;;;;5010848;28;20491;-53
2024/01/14 10:56:03;;;;;;;9.13;2.80;;;3.10;99.90;;;;;;5012322;28;20930;-54
2024/01/14 10:58:36;;;;;;;3.57;1.60;;;3.10;99.90;;;;;;5011887;28;20451;-52
2024/01/14 11:01:05;;;;;;;4.00;1.97;;;3.00;99.90;;;;;;5004878;28;20493;-54
2024/01/14 11:03:34;;;;;;;3.63;2.00;;;3.10;99.90;;;;;;5002755;28;20484;-53
2024/01/14 11:06:00;;;;;;;6.60;2.40;;;3.20;99.90;;;;;;5007059;28;20495;-53
2024/01/14 11:08:28;;;;;;;6.80;2.10;;;3.20;99.90;;;;;;5005119;28;20858;-53
2024/01/14 11:10:56;;;;;;;11.00;2.90;;;3.20;99.90;;;;;;5006610;28;20507;-53
2024/01/14 11:13:26;;;;;;;5.53;2.30;;;3.20;99.90;;;;;;5003419;28;20467;-54
2024/01/14 11:16:04;;;;;;;3.43;2.17;;;3.30;99.90;;;;;;5003915;28;20975;-53
2024/01/14 11:18:35;;;;;;;3.93;2.40;;;3.30;99.90;;;;;;5009116;28;20433;-53
2024/01/14 11:21:23;;;;;;;3.30;1.77;;;3.30;99.90;;;;;;5006657;28;20502;-55
2024/01/14 11:23:50;;;;;;;8.00;2.50;;;3.30;99.90;;;;;;5007616;28;20569;-54
2024/01/14 11:26:17;;;;;;;5.70;2.13;;;3.30;99.90;;;;;;5004806;28;20502;-53
2024/01/14 11:28:44;;;;;;;6.57;2.20;;;3.40;99.90;;;;;;5006085;28;20499;-53
2024/01/14 11:31:11;;;;;;;6.30;2.10;;;3.40;99.90;;;;;;5005001;28;20461;-55
2024/01/14 11:33:40;;;;;;;6.43;2.67;;;3.40;99.90;;;;;;5002389;28;21006;-53
2024/01/14 11:36:09;;;;;;;5.20;1.67;;;3.40;99.90;;;;;;5006588;28;20463;-52
2024/01/14 11:38:37;;;;;;;6.83;2.53;;;3.50;99.90;;;;;;5005602;28;20455;-52
2024/01/14 11:41:23;;;;;;;4.67;1.77;;;3.50;99.90;;;;;;5006962;28;20461;-53
2024/01/14 11:43:51;;;;;;;5.40;2.10;;;3.40;99.90;;;;;;5005031;28;20488;-53
2024/01/14 11:46:39;;;;;;;9.60;2.37;;;3.30;99.90;;;;;;5004719;28;20503;-53
2024/01/14 11:49:09;;;;;;;3.23;1.80;;;3.20;99.90;;;;;;5006161;28;20503;-53
2024/01/14 11:51:39;;;;;;;7.73;1.90;;;3.20;99.90;;;;;;5008441;28;20451;-53
2024/01/14 11:54:08;;;;;;;5.40;2.20;;;3.10;99.90;;;;;;5008312;28;20541;-53
2024/01/14 11:56:35;;;;;;;2.40;1.83;;;3.10;99.90;;;;;;5001505;28;20460;-54
2024/01/14 11:59:06;;;;;;;8.50;3.00;;;3.30;99.90;;;;;;5007363;28;20484;-53
2024/01/14 12:01:33;;;;;;;5.00;2.20;;;3.50;99.90;;;;;;5005709;28;21624;-53
2024/01/14 12:04:04;;;;;;;3.00;1.90;;;3.40;99.90;;;;;;5004224;28;20486;-53
2024/01/14 12:06:39;;;;;;;9.77;2.67;;;3.50;99.90;;;;;;5006253;28;20473;-52
2024/01/14 12:09:06;;;;;;;8.57;2.47;;;3.40;99.90;;;;;;5007140;28;20868;-53
2024/01/14 12:11:33;;;;;;;5.23;1.87;;;3.40;99.90;;;;;;5004837;28;20463;-53
2024/01/14 12:13:59;;;;;;;3.83;1.67;;;3.40;99.90;;;;;;5006680;28;20573;-53
2024/01/14 12:16:26;;;;;;;3.57;1.93;;;3.40;99.90;;;;;;5007425;28;20517;-53
2024/01/14 12:18:53;;;;;;;5.43;2.10;;;3.40;99.90;;;;;;5008578;28;20491;-52
2024/01/14 12:21:23;;;;;;;4.53;1.83;;;3.40;99.90;;;;;;5004028;28;20506;-53
2024/01/14 12:23:50;;;;;;;4.80;2.27;;;3.40;99.90;;;;;;5008174;28;20475;-52
2024/01/14 12:26:17;;;;;;;2.33;1.93;;;3.40;99.90;;;;;;5006894;28;20499;-54
2024/01/14 12:28:43;;;;;;;5.90;2.30;;;3.40;99.90;;;;;;5007671;28;20554;-53
2024/01/14 12:31:18;;;;;;;5.33;2.13;;;3.40;99.90;;;;;;5005116;28;20498;-53
2024/01/14 12:33:44;;;;;;;6.47;2.10;;;3.50;99.90;;;;;;5005630;28;20487;-53
2024/01/14 12:36:12;;;;;;;4.93;1.80;;;3.40;99.90;;;;;;5000672;28;20496;-53
2024/01/14 12:38:40;;;;;;;4.73;1.97;;;3.40;99.90;;;;;;5005301;28;20522;-53
2024/01/14 12:41:07;;;;;;;5.40;1.73;;;3.40;99.90;;;;;;5004167;28;20985;-53
2024/01/14 12:43:34;;;;;;;3.47;1.90;;;3.40;99.90;;;;;;5007268;28;20512;-53
2024/01/14 12:46:03;;;;;;;6.40;1.97;;;3.40;99.90;;;;;;5006482;28;20464;-53
2024/01/14 12:48:31;;;;;;;5.17;2.20;;;3.40;99.90;;;;;;5007497;28;20771;-53
2024/01/14 12:50:58;;;;;;;11.03;2.47;;;3.40;99.90;;;;;;5006190;28;20460;-53
2024/01/14 12:53:26;;;;;;;5.80;2.27;;;3.40;99.90;;;;;;5011251;28;20455;-53
2024/01/14 12:56:07;;;;;;;7.70;2.37;;;3.40;99.90;;;;;;5005008;28;20484;-51